Time;durP1;ratioP1;P1;durP2;ratioP2;P2;SDS_P1;SDS_P2;PMS_P1;PMS_P2;Temp;Humidity;BMP_temperature;BMP_pressure;BME280_temperature;BME280_humidity;BME280_pressure;Samples;Min_cycle;Max_cycle;Signal;HPM_P1;HPM_P2
2022/05/17 00:01:55;;;;;;;7.50;4.05;;;17.40;67.70;;;;;;5114039;28;20032;-68
2022/05/17 00:04:21;;;;;;;8.30;4.57;;;17.30;67.80;;;;;;5113012;28;20028;-69
2022/05/17 00:06:47;;;;;;;10.43;4.28;;;17.30;68.20;;;;;;5113990;28;20414;-69
2022/05/17 00:09:16;;;;;;;11.27;4.18;;;17.30;68.30;;;;;;5114040;28;20028;-69
2022/05/17 00:11:43;;;;;;;8.63;4.22;;;17.30;68.30;;;;;;5114007;28;20028;-69
2022/05/17 00:14:09;;;;;;;8.07;4.10;;;17.40;68.30;;;;;;5113867;28;20034;-69
2022/05/17 00:16:35;;;;;;;9.40;4.25;;;17.40;67.40;;;;;;5113929;28;20036;-69
2022/05/17 00:19:01;;;;;;;7.20;4.78;;;17.40;67.20;;;;;;5113716;28;20035;-69
2022/05/17 00:21:26;;;;;;;8.52;4.28;;;17.30;66.90;;;;;;5113733;28;20091;-69
2022/05/17 00:23:52;;;;;;;9.20;3.75;;;17.30;67.10;;;;;;5113546;28;20044;-69
2022/05/17 00:26:17;;;;;;;7.32;4.05;;;17.20;67.00;;;;;;5113679;28;20072;-69
2022/05/17 00:28:43;;;;;;;7.85;4.30;;;17.20;66.80;;;;;;5112488;28;20032;-69
2022/05/17 00:31:09;;;;;;;8.60;3.83;;;17.20;66.80;;;;;;5113608;28;20024;-69
2022/05/17 00:33:35;;;;;;;7.40;4.00;;;17.20;66.70;;;;;;5113572;28;20028;-69
2022/05/17 00:36:02;;;;;;;7.30;3.85;;;17.20;66.70;;;;;;5113521;28;20039;-69
2022/05/17 00:38:28;;;;;;;10.00;4.05;;;17.20;66.70;;;;;;5112879;28;20020;-69
2022/05/17 00:40:53;;;;;;;8.25;4.03;;;17.30;66.70;;;;;;5113392;28;20089;-69
2022/05/17 00:43:28;;;;;;;9.38;3.78;;;17.30;66.20;;;;;;5113477;28;20032;-69
2022/05/17 00:45:55;;;;;;;6.57;3.75;;;17.30;66.20;;;;;;5113495;28;20019;-69
2022/05/17 00:48:21;;;;;;;7.78;4.25;;;17.20;66.10;;;;;;5112374;28;20058;-69
2022/05/17 00:50:49;;;;;;;11.57;4.07;;;17.30;66.20;;;;;;5113381;28;20028;-69
2022/05/17 00:53:22;;;;;;;8.85;4.25;;;17.20;66.50;;;;;;5113391;28;20020;-69
2022/05/17 00:55:59;;;;;;;8.18;4.38;;;17.20;66.90;;;;;;5113338;28;20025;-69
2022/05/17 00:58:40;;;;;;;7.88;3.75;;;17.10;67.40;;;;;;5113341;28;20028;-69
2022/05/17 01:01:25;;;;;;;9.55;4.57;;;17.00;67.50;;;;;;5113449;28;20058;-69
2022/05/17 01:04:14;;;;;;;9.95;3.97;;;17.00;67.00;;;;;;5112280;28;20020;-69
2022/05/17 01:06:51;;;;;;;9.55;4.40;;;16.80;67.00;;;;;;5113293;28;20371;-69
2022/05/17 01:09:18;;;;;;;7.85;3.58;;;16.80;67.50;;;;;;5113268;28;20024;-69
2022/05/17 01:11:44;;;;;;;7.78;4.38;;;16.80;67.30;;;;;;5113182;28;20024;-69
2022/05/17 01:16:56;;;;;;;6.25;3.83;;;16.80;67.30;;;;;;5113296;28;20039;-69
2022/05/17 01:19:22;;;;;;;6.78;3.58;;;16.70;67.60;;;;;;5113044;28;20032;-69
2022/05/17 01:21:47;;;;;;;9.68;4.00;;;16.60;67.70;;;;;;5112889;28;20028;-70
2022/05/17 01:24:13;;;;;;;6.45;3.83;;;16.50;68.00;;;;;;5113109;28;20035;-69
2022/05/17 01:26:42;;;;;;;9.07;4.25;;;16.50;68.50;;;;;;5113180;28;20035;-69
2022/05/17 01:29:09;;;;;;;8.80;3.80;;;16.60;68.70;;;;;;5113006;28;20028;-69
2022/05/17 01:31:38;;;;;;;7.68;4.07;;;16.60;68.60;;;;;;5113059;28;20050;-69
2022/05/17 01:34:06;;;;;;;8.40;4.20;;;16.70;68.40;;;;;;5113003;28;20046;-69
2022/05/17 01:36:32;;;;;;;7.55;4.45;;;16.80;68.50;;;;;;5112965;28;20024;-69
2022/05/17 01:38:58;;;;;;;10.30;4.32;;;16.80;68.50;;;;;;5112859;28;20039;-69
2022/05/17 01:41:25;;;;;;;7.93;4.20;;;16.80;68.80;;;;;;5112912;28;20028;-69
2022/05/17 01:43:53;;;;;;;9.80;4.43;;;16.80;69.10;;;;;;5112896;28;20024;-69
2022/05/17 01:46:19;;;;;;;6.22;4.43;;;16.70;70.00;;;;;;5112893;28;20016;-69
2022/05/17 01:48:45;;;;;;;8.20;4.32;;;16.70;69.60;;;;;;5112939;28;20044;-69
2022/05/17 01:51:11;;;;;;;10.00;4.28;;;16.70;70.00;;;;;;5115899;28;20028;-69
2022/05/17 01:53:37;;;;;;;6.05;4.10;;;16.80;70.50;;;;;;5116579;28;20031;-69
2022/05/17 01:56:05;;;;;;;9.30;4.55;;;16.90;70.80;;;;;;5116531;28;20017;-69
2022/05/17 01:58:32;;;;;;;8.40;4.40;;;16.90;70.80;;;;;;5115425;28;20028;-69
2022/05/17 02:00:57;;;;;;;8.75;4.38;;;17.00;70.80;;;;;;5116370;28;20058;-69
2022/05/17 02:03:23;;;;;;;7.60;4.28;;;17.00;71.50;;;;;;5116483;28;20080;-69
2022/05/17 02:05:49;;;;;;;8.43;4.00;;;17.10;70.60;;;;;;5115298;28;20017;-69
2022/05/17 02:08:15;;;;;;;8.90;4.60;;;17.20;70.30;;;;;;5116235;28;20020;-69
2022/05/17 02:10:41;;;;;;;8.55;4.40;;;17.20;70.10;;;;;;5116229;28;20047;-68
2022/05/17 02:13:06;;;;;;;10.40;4.50;;;17.20;70.10;;;;;;5116196;28;20031;-69
2022/05/17 02:15:32;;;;;;;8.65;4.38;;;17.20;70.00;;;;;;5116136;28;20028;-69
2022/05/17 02:17:57;;;;;;;5.57;4.13;;;17.20;70.00;;;;;;5116220;28;20028;-68
2022/05/17 02:20:23;;;;;;;8.35;4.50;;;17.20;70.00;;;;;;5115956;28;20036;-69
2022/05/17 02:22:50;;;;;;;9.98;4.60;;;17.20;70.10;;;;;;5115821;28;20043;-69
2022/05/17 02:25:16;;;;;;;10.55;4.55;;;17.20;70.20;;;;;;5115006;28;20016;-69
2022/05/17 02:27:41;;;;;;;11.48;4.70;;;17.20;70.40;;;;;;5115839;28;20027;-69
2022/05/17 02:30:09;;;;;;;7.60;4.30;;;17.20;70.50;;;;;;5115856;28;20031;-69
2022/05/17 02:32:35;;;;;;;13.43;4.97;;;17.20;70.30;;;;;;5116007;28;20024;-69
2022/05/17 02:35:01;;;;;;;10.40;4.82;;;17.30;70.30;;;;;;5115859;28;20149;-69
2022/05/17 02:37:27;;;;;;;8.45;5.00;;;17.30;70.20;;;;;;5115746;28;20087;-69
2022/05/17 02:39:53;;;;;;;9.05;4.80;;;17.20;70.40;;;;;;5115660;28;20040;-69
2022/05/17 02:42:19;;;;;;;9.50;5.13;;;17.20;70.50;;;;;;5115627;28;20027;-69
2022/05/17 02:44:45;;;;;;;9.80;5.00;;;17.20;70.70;;;;;;5115425;28;20025;-69
2022/05/17 02:47:11;;;;;;;7.93;4.35;;;17.20;70.70;;;;;;5115651;28;20049;-69
2022/05/17 02:49:40;;;;;;;11.43;4.90;;;17.20;71.70;;;;;;5115513;28;20349;-69
2022/05/17 02:52:06;;;;;;;9.02;4.82;;;17.10;71.10;;;;;;5115418;28;20020;-69
2022/05/17 02:54:33;;;;;;;7.80;4.40;;;17.10;71.00;;;;;;5115391;28;20020;-69
2022/05/17 02:56:58;;;;;;;9.07;5.10;;;17.10;71.10;;;;;;5115331;28;20024;-69
2022/05/17 02:59:24;;;;;;;10.10;4.80;;;17.10;71.10;;;;;;5115210;28;20060;-69
2022/05/17 03:01:50;;;;;;;8.80;4.53;;;17.20;71.00;;;;;;5114621;28;20084;-69
2022/05/17 03:04:16;;;;;;;7.88;4.47;;;17.20;70.90;;;;;;5115195;28;20016;-69
2022/05/17 03:06:43;;;;;;;9.93;4.97;;;17.20;71.00;;;;;;5115127;28;20039;-70
2022/05/17 03:09:09;;;;;;;8.60;4.75;;;17.20;71.00;;;;;;5115067;28;20058;-70
2022/05/17 03:11:36;;;;;;;8.15;4.63;;;17.20;71.00;;;;;;5115047;28;20032;-69
2022/05/17 03:14:02;;;;;;;10.45;4.93;;;17.30;71.10;;;;;;5114985;28;20035;-70
2022/05/17 03:16:32;;;;;;;10.65;4.80;;;17.30;71.00;;;;;;5114958;28;20032;-70
2022/05/17 03:18:59;;;;;;;9.80;4.50;;;17.30;70.70;;;;;;5114896;28;20034;-70
2022/05/17 03:21:25;;;;;;;11.32;4.65;;;17.30;70.60;;;;;;5114848;28;20020;-70
2022/05/17 03:23:51;;;;;;;10.85;4.63;;;17.20;70.40;;;;;;5114703;28;20072;-70
2022/05/17 03:26:16;;;;;;;10.70;4.95;;;17.20;70.70;;;;;;5114891;28;20031;-69
2022/05/17 03:28:42;;;;;;;11.07;4.88;;;17.20;70.70;;;;;;5114711;28;20035;-70
2022/05/17 03:31:08;;;;;;;10.50;5.22;;;17.20;70.70;;;;;;5113676;28;20028;-70
2022/05/17 03:33:34;;;;;;;8.88;4.78;;;17.20;70.60;;;;;;5113576;28;20047;-70
2022/05/17 03:36:00;;;;;;;10.80;4.85;;;17.10;70.70;;;;;;5114549;28;20028;-70
2022/05/17 03:38:26;;;;;;;11.00;4.97;;;17.10;70.80;;;;;;5114519;28;20047;-70
2022/05/17 03:40:54;;;;;;;9.48;5.00;;;17.10;70.90;;;;;;5114405;28;20028;-70
2022/05/17 03:43:20;;;;;;;11.48;5.00;;;17.10;71.10;;;;;;5114433;28;20024;-70
2022/05/17 03:45:47;;;;;;;9.68;4.80;;;17.10;71.00;;;;;;5114403;28;20016;-70
2022/05/17 03:48:13;;;;;;;10.30;5.20;;;17.10;71.00;;;;;;5114505;28;20546;-70
2022/05/17 03:50:39;;;;;;;7.90;4.85;;;17.10;70.90;;;;;;5114332;28;20162;-70
2022/05/17 03:53:05;;;;;;;9.77;4.65;;;17.00;71.10;;;;;;5114348;28;20024;-70
2022/05/17 03:55:31;;;;;;;12.98;5.32;;;17.00;71.50;;;;;;5113167;28;20034;-69
2022/05/17 03:57:56;;;;;;;7.85;4.80;;;17.00;71.80;;;;;;5114146;28;20036;-69
2022/05/17 04:00:22;;;;;;;10.13;4.82;;;17.10;71.40;;;;;;5114062;28;20048;-70
2022/05/17 04:02:49;;;;;;;11.55;5.45;;;17.10;71.40;;;;;;5114059;28;20020;-70
2022/05/17 04:05:16;;;;;;;14.02;5.63;;;17.10;71.30;;;;;;5113099;28;20038;-70
2022/05/17 04:07:41;;;;;;;11.55;5.47;;;17.10;71.50;;;;;;5114033;28;20083;-70
2022/05/17 04:10:11;;;;;;;11.23;4.72;;;17.10;71.90;;;;;;5113936;28;20054;-70
2022/05/17 04:12:36;;;;;;;8.93;5.30;;;17.10;72.00;;;;;;5113580;28;20020;-70
2022/05/17 04:15:05;;;;;;;8.35;5.40;;;17.20;72.00;;;;;;5113272;28;20043;-70
2022/05/17 04:17:30;;;;;;;9.88;5.05;;;17.20;72.00;;;;;;5112817;28;20032;-70
2022/05/17 04:19:58;;;;;;;8.90;4.88;;;17.20;71.90;;;;;;5113693;28;20032;-70
2022/05/17 04:22:24;;;;;;;13.43;5.20;;;17.30;72.00;;;;;;5113604;28;20038;-70
2022/05/17 04:24:53;;;;;;;9.95;5.35;;;17.20;72.00;;;;;;5113695;28;20028;-70
2022/05/17 04:27:19;;;;;;;10.32;5.72;;;17.20;72.20;;;;;;5113717;28;20023;-70
2022/05/17 04:29:45;;;;;;;11.63;5.43;;;17.20;72.10;;;;;;5113589;28;20024;-70
2022/05/17 04:32:11;;;;;;;10.15;5.53;;;17.20;72.30;;;;;;5113633;28;20020;-70
2022/05/17 04:34:36;;;;;;;12.00;5.55;;;17.10;72.50;;;;;;5113584;28;20035;-70
2022/05/17 04:37:02;;;;;;;10.32;5.60;;;17.10;72.70;;;;;;5113525;28;20032;-70
2022/05/17 04:39:28;;;;;;;11.02;5.95;;;17.10;73.00;;;;;;5113463;28;20088;-70
2022/05/17 04:41:54;;;;;;;9.65;6.28;;;17.00;73.50;;;;;;5113485;28;20027;-70
2022/05/17 04:44:19;;;;;;;11.02;6.47;;;17.00;74.00;;;;;;5113437;28;20024;-70
2022/05/17 04:46:45;;;;;;;16.48;7.38;;;16.90;74.40;;;;;;5113472;28;20475;-70
2022/05/17 04:49:10;;;;;;;11.93;6.75;;;16.80;74.70;;;;;;5112394;28;20032;-70
2022/05/17 04:51:36;;;;;;;10.40;6.05;;;16.70;75.00;;;;;;5112351;28;20123;-70
2022/05/17 04:54:02;;;;;;;14.15;6.65;;;16.80;75.00;;;;;;5113373;28;20025;-70
2022/05/17 04:56:28;;;;;;;11.25;6.50;;;16.80;75.00;;;;;;5113407;28;20048;-70
2022/05/17 04:58:54;;;;;;;11.95;6.35;;;16.90;74.90;;;;;;5113273;28;20039;-70
2022/05/17 05:01:21;;;;;;;14.75;6.70;;;16.90;74.80;;;;;;5113274;28;20032;-70
2022/05/17 05:03:47;;;;;;;13.93;6.88;;;17.00;74.80;;;;;;5112234;28;20084;-70
2022/05/17 05:06:13;;;;;;;10.65;6.68;;;17.00;74.80;;;;;;5113363;28;20028;-70
2022/05/17 05:08:38;;;;;;;13.10;6.72;;;17.00;74.90;;;;;;5113263;28;20028;-70
2022/05/17 05:11:05;;;;;;;12.55;6.93;;;17.10;74.90;;;;;;5113205;28;20039;-70
2022/05/17 05:13:31;;;;;;;12.95;7.40;;;17.20;74.80;;;;;;5113223;28;20403;-71
2022/05/17 05:15:56;;;;;;;13.35;7.18;;;17.20;74.60;;;;;;5113156;28;20027;-70
2022/05/17 05:18:22;;;;;;;14.88;7.68;;;17.20;74.60;;;;;;5113117;28;20098;-70
2022/05/17 05:20:48;;;;;;;12.52;7.47;;;17.20;74.80;;;;;;5113043;28;20078;-70
2022/05/17 05:23:14;;;;;;;12.13;7.45;;;17.30;74.70;;;;;;5112892;28;20044;-71
2022/05/17 05:25:40;;;;;;;13.95;7.40;;;17.30;74.50;;;;;;5115476;28;20031;-71
2022/05/17 05:28:07;;;;;;;12.40;7.55;;;17.40;74.40;;;;;;5116012;28;20037;-70
2022/05/17 05:30:34;;;;;;;16.80;7.28;;;17.40;74.30;;;;;;5117036;28;20028;-70
2022/05/17 05:32:59;;;;;;;13.80;7.88;;;17.40;74.30;;;;;;5115992;28;20102;-70
2022/05/17 05:35:25;;;;;;;12.40;7.70;;;17.40;74.40;;;;;;5116891;28;20045;-70
2022/05/17 05:37:52;;;;;;;16.55;8.07;;;17.40;74.50;;;;;;5116877;28;20038;-71
2022/05/17 05:40:19;;;;;;;15.23;7.68;;;17.40;74.80;;;;;;5116717;28;20088;-71
2022/05/17 05:42:45;;;;;;;19.58;8.20;;;17.40;75.60;;;;;;5116791;28;20088;-71
2022/05/17 05:45:11;;;;;;;16.98;7.93;;;17.50;75.20;;;;;;5116709;28;20032;-71
2022/05/17 05:47:37;;;;;;;12.88;8.10;;;17.50;76.10;;;;;;5116689;28;20020;-70
2022/05/17 05:50:03;;;;;;;14.18;8.07;;;17.40;75.60;;;;;;5116625;28;20080;-71
2022/05/17 05:52:29;;;;;;;15.52;8.27;;;17.40;75.20;;;;;;5116592;28;20035;-70
2022/05/17 05:54:55;;;;;;;15.07;8.65;;;17.40;75.50;;;;;;5116536;28;20044;-71
2022/05/17 05:57:21;;;;;;;14.55;8.48;;;17.40;75.60;;;;;;5116545;28;20032;-70
2022/05/17 05:59:47;;;;;;;13.32;8.68;;;17.50;75.60;;;;;;5116377;28;20053;-70
2022/05/17 06:02:12;;;;;;;15.32;8.23;;;17.50;75.50;;;;;;5116390;28;20040;-70
2022/05/17 06:04:39;;;;;;;15.43;8.50;;;17.60;75.10;;;;;;5116494;28;20024;-70
2022/05/17 06:07:05;;;;;;;11.55;8.05;;;17.70;74.60;;;;;;5116276;28;20016;-70
2022/05/17 06:09:31;;;;;;;14.20;7.90;;;17.70;74.00;;;;;;5116248;28;20029;-70
2022/05/17 06:11:57;;;;;;;18.55;8.50;;;17.80;73.60;;;;;;5116332;28;20046;-70
2022/05/17 06:14:23;;;;;;;12.32;8.70;;;17.80;73.50;;;;;;5116153;28;20039;-70
2022/05/17 06:16:50;;;;;;;17.35;9.85;;;17.90;73.30;;;;;;5116153;28;20032;-70
2022/05/17 06:19:16;;;;;;;19.27;9.38;;;17.90;73.40;;;;;;5115997;28;20030;-70
2022/05/17 06:21:42;;;;;;;15.88;9.38;;;18.00;73.40;;;;;;5115855;28;20028;-70
2022/05/17 06:24:08;;;;;;;15.75;8.50;;;18.00;73.20;;;;;;5116013;28;20033;-70
2022/05/17 06:26:34;;;;;;;14.13;8.77;;;18.10;73.10;;;;;;5114929;28;20021;-70
2022/05/17 06:29:00;;;;;;;14.85;9.07;;;18.10;72.90;;;;;;5115851;28;20016;-70
2022/05/17 06:31:25;;;;;;;13.90;9.20;;;18.20;72.90;;;;;;5115783;28;20031;-70
2022/05/17 06:33:51;;;;;;;14.63;9.23;;;18.30;72.90;;;;;;5114877;28;20039;-70
2022/05/17 06:36:17;;;;;;;14.68;9.18;;;18.30;73.10;;;;;;5114669;28;20032;-70
2022/05/17 06:38:42;;;;;;;16.35;9.45;;;18.30;73.00;;;;;;5115699;28;20079;-70
2022/05/17 06:41:08;;;;;;;17.95;9.45;;;18.40;72.60;;;;;;5115584;28;20043;-69
2022/05/17 06:43:34;;;;;;;17.27;9.95;;;18.40;72.70;;;;;;5114624;28;20066;-70
2022/05/17 06:46:03;;;;;;;15.65;9.80;;;18.50;72.90;;;;;;5115556;28;20028;-70
2022/05/17 06:48:30;;;;;;;14.23;9.32;;;18.60;73.30;;;;;;5115561;28;20031;-70
2022/05/17 06:51:05;;;;;;;18.30;9.57;;;18.60;72.60;;;;;;5115496;28;20059;-70
2022/05/17 06:53:31;;;;;;;14.38;9.23;;;18.60;72.50;;;;;;5115493;28;20027;-70
2022/05/17 06:55:58;;;;;;;16.60;10.05;;;18.70;72.50;;;;;;5115379;28;20024;-70
2022/05/17 06:58:24;;;;;;;13.68;9.18;;;18.70;72.70;;;;;;5115459;28;20028;-70
2022/05/17 07:00:50;;;;;;;16.75;10.25;;;18.70;72.60;;;;;;5115226;28;20031;-70
2022/05/17 07:03:16;;;;;;;16.85;10.05;;;18.70;72.70;;;;;;5115187;28;20028;-70
2022/05/17 07:05:41;;;;;;;19.20;10.23;;;18.70;73.20;;;;;;5115190;28;20024;-70
2022/05/17 07:08:07;;;;;;;20.77;10.70;;;18.70;72.90;;;;;;5114109;28;20031;-70
2022/05/17 07:13:18;;;;;;;15.77;10.10;;;18.80;72.50;;;;;;5115291;28;20108;-70
2022/05/17 07:15:49;;;;;;;18.65;9.73;;;18.80;72.60;;;;;;5113987;28;20028;-70
2022/05/17 07:18:18;;;;;;;16.52;9.63;;;18.80;72.90;;;;;;5115018;28;20158;-70
2022/05/17 07:20:44;;;;;;;15.80;10.35;;;18.80;73.00;;;;;;5114802;28;20050;-70
2022/05/17 07:23:11;;;;;;;20.30;9.95;;;18.80;73.30;;;;;;5114655;28;20040;-70
2022/05/17 07:25:40;;;;;;;16.73;10.18;;;18.90;73.20;;;;;;5114834;28;20016;-70
2022/05/17 07:28:07;;;;;;;15.18;10.13;;;18.90;73.10;;;;;;5114710;28;20016;-70
2022/05/17 07:30:33;;;;;;;16.35;10.02;;;18.90;72.80;;;;;;5114728;28;20028;-70
2022/05/17 07:32:59;;;;;;;20.75;10.88;;;18.90;72.90;;;;;;5114708;28;20050;-70
2022/05/17 07:35:24;;;;;;;17.05;10.15;;;19.00;72.80;;;;;;5113581;28;20028;-70
2022/05/17 07:37:50;;;;;;;19.15;10.85;;;19.00;72.70;;;;;;5114600;28;20024;-70
2022/05/17 07:40:16;;;;;;;17.35;10.40;;;19.00;72.60;;;;;;5114400;28;20032;-70
2022/05/17 07:42:42;;;;;;;17.85;10.50;;;19.00;72.70;;;;;;5114441;28;20016;-70
2022/05/17 07:45:10;;;;;;;21.48;10.95;;;19.00;72.70;;;;;;5114426;28;20035;-70
2022/05/17 07:47:36;;;;;;;20.27;11.60;;;19.00;72.80;;;;;;5114197;28;20020;-70
2022/05/17 07:50:03;;;;;;;17.25;10.38;;;19.00;73.10;;;;;;5114325;28;20032;-70
2022/05/17 07:52:29;;;;;;;24.60;9.73;;;19.10;73.20;;;;;;5114320;28;20024;-70
2022/05/17 07:54:54;;;;;;;17.67;9.38;;;19.00;72.70;;;;;;5114250;28;20024;-70
2022/05/17 07:57:22;;;;;;;16.90;9.73;;;19.10;72.00;;;;;;5114222;28;20024;-70
2022/05/17 07:59:47;;;;;;;18.83;9.80;;;19.10;72.40;;;;;;5114121;28;20027;-70
2022/05/17 08:02:13;;;;;;;16.35;8.60;;;19.20;72.90;;;;;;5114096;28;20468;-70
2022/05/17 08:04:39;;;;;;;12.52;7.57;;;19.20;73.10;;;;;;5114124;28;20040;-70
2022/05/17 08:07:04;;;;;;;15.88;7.95;;;19.20;72.40;;;;;;5113975;28;20036;-70
2022/05/17 08:09:30;;;;;;;13.23;7.60;;;19.10;72.10;;;;;;5113970;28;20084;-70
2022/05/17 08:11:55;;;;;;;14.10;7.18;;;19.10;71.10;;;;;;5112895;28;20040;-70
2022/05/17 08:14:22;;;;;;;13.85;7.53;;;19.10;71.00;;;;;;5113920;28;20028;-70
2022/05/17 08:16:48;;;;;;;14.35;7.95;;;19.10;71.10;;;;;;5113864;28;20030;-70
2022/05/17 08:19:14;;;;;;;18.63;10.55;;;19.10;70.90;;;;;;5113727;28;20063;-70
2022/05/17 08:21:40;;;;;;;19.45;11.52;;;19.20;71.70;;;;;;5113587;28;20088;-71
2022/05/17 08:24:06;;;;;;;19.42;10.10;;;19.20;72.60;;;;;;5113811;28;20032;-70
2022/05/17 08:29:16;;;;;;;13.88;8.68;;;19.20;72.70;;;;;;5113707;28;20043;-70
2022/05/17 08:31:42;;;;;;;14.90;8.73;;;19.20;72.10;;;;;;5113603;28;20036;-70
2022/05/17 08:34:08;;;;;;;13.90;8.35;;;19.20;72.10;;;;;;5113731;28;20031;-70
2022/05/17 08:36:34;;;;;;;15.55;8.75;;;19.20;71.80;;;;;;5113553;28;20058;-70
2022/05/17 08:39:00;;;;;;;12.65;8.60;;;19.20;71.40;;;;;;5113465;28;20028;-70
2022/05/17 08:41:36;;;;;;;16.98;8.20;;;19.20;71.70;;;;;;5113539;28;20024;-70
2022/05/17 08:44:14;;;;;;;14.68;8.98;;;19.20;70.70;;;;;;5113545;28;20021;-70
2022/05/17 08:46:54;;;;;;;14.57;8.43;;;19.20;70.90;;;;;;5113478;28;20020;-70
2022/05/17 08:49:23;;;;;;;14.55;8.30;;;19.30;71.60;;;;;;5112602;28;20027;-70
2022/05/17 08:52:15;;;;;;;13.40;7.85;;;19.30;71.10;;;;;;5113411;28;20032;-70
2022/05/17 08:54:57;;;;;;;14.18;7.50;;;19.30;70.50;;;;;;5112356;28;20039;-70
2022/05/17 08:57:37;;;;;;;10.30;6.30;;;19.40;70.00;;;;;;5113451;28;20024;-70
2022/05/17 09:00:12;;;;;;;12.18;6.03;;;19.40;69.50;;;;;;5114717;28;20109;-70
2022/05/17 09:02:44;;;;;;;13.40;6.93;;;19.40;68.80;;;;;;5117598;28;20106;-70
2022/05/17 09:05:33;;;;;;;14.33;6.23;;;19.40;67.00;;;;;;5117649;28;20024;-70
2022/05/17 09:08:24;;;;;;;14.35;6.22;;;19.40;67.00;;;;;;5117498;28;20012;-70
2022/05/17 09:10:54;;;;;;;12.40;6.38;;;19.40;66.00;;;;;;5117478;28;20050;-70
2022/05/17 09:13:47;;;;;;;11.85;6.22;;;19.40;66.70;;;;;;5117442;28;20032;-70
2022/05/17 09:16:14;;;;;;;12.15;6.38;;;19.50;67.00;;;;;;5117356;28;20123;-70
2022/05/17 09:18:43;;;;;;;13.73;6.28;;;19.50;67.30;;;;;;5117230;28;20089;-70
2022/05/17 09:21:29;;;;;;;10.15;6.22;;;19.50;67.60;;;;;;5117161;28;20441;-70
2022/05/17 09:23:58;;;;;;;14.88;7.10;;;19.50;67.40;;;;;;5116034;28;20040;-70
2022/05/17 09:26:24;;;;;;;11.55;5.65;;;19.50;67.60;;;;;;5117099;28;20039;-70
2022/05/17 09:28:54;;;;;;;10.73;5.72;;;19.40;68.30;;;;;;5117020;28;20020;-70
2022/05/17 09:31:23;;;;;;;14.05;5.95;;;19.50;68.10;;;;;;5117073;28;20023;-70
2022/05/17 09:33:50;;;;;;;13.15;5.68;;;19.50;67.70;;;;;;5116963;28;20024;-70
2022/05/17 09:36:28;;;;;;;15.20;5.70;;;19.50;67.90;;;;;;5117055;28;20024;-70
2022/05/17 09:38:54;;;;;;;10.32;5.70;;;19.50;67.90;;;;;;5116843;28;20087;-70
2022/05/17 09:41:28;;;;;;;12.00;6.10;;;19.50;68.60;;;;;;5116820;28;20016;-70
2022/05/17 09:44:15;;;;;;;11.80;5.95;;;19.50;68.40;;;;;;5116796;28;20027;-70
2022/05/17 09:46:48;;;;;;;14.10;6.35;;;19.60;68.50;;;;;;5116775;28;20024;-70
2022/05/17 09:52:32;;;;;;;16.17;6.32;;;19.70;70.00;;;;;;5116830;28;20062;-70
2022/05/17 09:55:22;;;;;;;9.43;6.30;;;19.60;68.30;;;;;;5116347;28;20024;-70
2022/05/17 09:57:50;;;;;;;16.40;7.95;;;19.70;68.60;;;;;;5116546;28;20533;-70
2022/05/17 10:00:26;;;;;;;18.17;8.15;;;19.70;68.90;;;;;;5116295;28;20028;-70
2022/05/17 10:03:00;;;;;;;14.68;9.20;;;19.70;69.30;;;;;;5116477;28;20028;-70
2022/05/17 10:05:46;;;;;;;24.67;9.15;;;19.70;70.00;;;;;;5116431;28;20083;-70
2022/05/17 10:08:14;;;;;;;17.75;9.73;;;19.80;69.20;;;;;;5116398;28;20028;-70
2022/05/17 10:11:01;;;;;;;14.68;8.90;;;19.80;69.10;;;;;;5116229;28;20028;-70
2022/05/17 10:13:32;;;;;;;11.15;7.35;;;19.90;69.20;;;;;;5116216;28;20028;-70
2022/05/17 10:16:06;;;;;;;13.02;8.02;;;19.90;68.20;;;;;;5116255;28;20046;-70
2022/05/17 10:18:54;;;;;;;15.02;8.10;;;20.00;66.30;;;;;;5115253;28;20032;-70
2022/05/17 10:21:28;;;;;;;17.52;8.50;;;20.00;67.40;;;;;;5116153;28;20087;-70
2022/05/17 10:24:23;;;;;;;14.05;8.02;;;20.00;67.10;;;;;;5115953;28;20047;-70
2022/05/17 10:27:05;;;;;;;16.90;9.45;;;20.10;67.60;;;;;;5116006;28;20079;-70
2022/05/17 10:29:51;;;;;;;17.50;8.23;;;20.00;68.10;;;;;;5115964;28;20020;-70
2022/05/17 10:32:34;;;;;;;14.05;7.70;;;20.10;66.40;;;;;;5115902;28;20031;-70
2022/05/17 10:35:25;;;;;;;13.07;7.55;;;20.20;65.60;;;;;;5115878;28;20101;-70
2022/05/17 10:37:59;;;;;;;13.95;7.63;;;20.30;66.30;;;;;;5115830;28;20027;-70
2022/05/17 10:40:30;;;;;;;14.75;7.20;;;20.30;66.40;;;;;;5115715;28;20031;-70
2022/05/17 10:42:57;;;;;;;15.45;7.72;;;20.60;67.50;;;;;;5115723;28;20020;-70
2022/05/17 10:45:33;;;;;;;13.07;6.70;;;20.70;66.70;;;;;;5115578;28;20020;-70
2022/05/17 10:48:15;;;;;;;12.98;7.88;;;20.80;64.20;;;;;;5115646;28;20103;-70
2022/05/17 10:50:44;;;;;;;12.73;7.40;;;21.00;64.60;;;;;;5115555;28;20024;-70
2022/05/17 10:53:31;;;;;;;11.60;6.80;;;21.10;65.00;;;;;;5115442;28;20035;-70
2022/05/17 10:56:06;;;;;;;10.88;6.47;;;21.30;63.90;;;;;;5115485;28;20073;-70
2022/05/17 10:59:02;;;;;;;9.48;5.78;;;21.30;62.90;;;;;;5115392;28;20561;-70
2022/05/17 11:01:53;;;;;;;12.05;5.63;;;21.20;61.10;;;;;;5115443;28;20032;-70
2022/05/17 11:04:33;;;;;;;13.48;6.10;;;21.20;62.50;;;;;;5115330;28;20028;-69
2022/05/17 11:07:23;;;;;;;13.68;6.32;;;21.20;61.60;;;;;;5115247;28;20020;-70
2022/05/17 11:10:13;;;;;;;11.50;5.75;;;21.20;62.40;;;;;;5115287;28;20042;-70
2022/05/17 11:12:46;;;;;;;9.38;5.43;;;21.30;63.20;;;;;;5115122;28;20024;-70
2022/05/17 11:15:29;;;;;;;9.10;5.30;;;21.30;62.70;;;;;;5115084;28;20024;-70
2022/05/17 11:18:01;;;;;;;11.68;5.25;;;21.20;62.20;;;;;;5115177;28;20100;-70
2022/05/17 11:20:53;;;;;;;11.98;5.53;;;21.30;62.90;;;;;;5114934;28;20080;-70
2022/05/17 11:23:53;;;;;;;9.70;5.43;;;21.30;62.40;;;;;;5103271;28;20040;-70
2022/05/17 11:26:53;;;;;;;9.80;5.05;;;21.30;62.70;;;;;;5088156;28;20021;-70
2022/05/17 11:29:27;;;;;;;7.95;4.60;;;21.30;62.30;;;;;;5114842;28;20032;-70
2022/05/17 11:31:55;;;;;;;9.70;4.90;;;21.30;62.60;;;;;;5114685;28;20079;-70
2022/05/17 11:34:28;;;;;;;9.43;5.60;;;21.30;62.30;;;;;;5114694;28;20035;-70
2022/05/17 11:36:56;;;;;;;9.23;5.40;;;21.40;63.00;;;;;;5113667;28;20091;-70
2022/05/17 11:39:31;;;;;;;12.00;5.32;;;21.40;62.90;;;;;;5114438;28;20032;-70
2022/05/17 11:42:24;;;;;;;10.80;5.78;;;21.40;64.00;;;;;;5114495;28;20020;-70
2022/05/17 11:44:49;;;;;;;;;;;21.50;63.70;;;;;;5114924;28;20016;-70
2022/05/17 11:47:51;;;;;;;9.88;6.00;;;21.50;64.10;;;;;;5114435;28;19943;-70
2022/05/17 11:50:18;;;;;;;11.35;5.88;;;21.60;64.50;;;;;;5114389;28;20092;-70
2022/05/17 11:52:46;;;;;;;9.88;6.45;;;21.60;64.80;;;;;;5114310;28;20486;-70
2022/05/17 11:55:17;;;;;;;10.48;5.55;;;21.70;63.60;;;;;;5114301;28;20418;-70
2022/05/17 11:57:57;;;;;;;8.65;5.00;;;21.80;63.30;;;;;;5114209;28;20086;-70
2022/05/17 12:00:23;;;;;;;8.25;4.38;;;21.90;61.30;;;;;;5114129;28;20036;-70
2022/05/17 12:02:54;;;;;;;9.07;4.55;;;22.00;61.30;;;;;;5114072;28;20024;-70
2022/05/17 12:05:38;;;;;;;9.55;4.25;;;22.10;60.90;;;;;;5114284;28;20012;-70
2022/05/17 12:08:26;;;;;;;32.55;6.90;;;22.20;60.70;;;;;;5113993;28;20020;-70
2022/05/17 12:11:13;;;;;;;7.75;4.13;;;22.30;61.20;;;;;;5113899;28;20036;-70
2022/05/17 12:13:52;;;;;;;144.27;22.38;;;22.40;59.00;;;;;;5114134;28;20103;-70
2022/05/17 12:16:23;;;;;;;186.23;27.27;;;22.40;60.80;;;;;;5113987;28;20028;-70
2022/05/17 12:19:00;;;;;;;11.98;4.72;;;22.50;59.70;;;;;;5113916;28;20039;-70
2022/05/17 12:21:39;;;;;;;150.95;24.65;;;22.50;58.30;;;;;;5113858;28;20028;-70
2022/05/17 12:24:10;;;;;;;50.40;10.77;;;22.60;58.80;;;;;;5113814;28;20020;-70
2022/05/17 12:26:51;;;;;;;10.05;4.40;;;22.60;58.30;;;;;;5113861;28;20031;-69
2022/05/17 12:32:10;;;;;;;10.68;5.38;;;22.80;59.00;;;;;;5113877;28;20031;-70
2022/05/17 12:34:39;;;;;;;7.75;4.70;;;22.90;58.60;;;;;;5112781;28;20024;-70
2022/05/17 12:37:16;;;;;;;11.00;4.70;;;23.00;57.90;;;;;;5113590;28;20032;-70
2022/05/17 12:45:22;;;;;;;6.53;3.70;;;23.50;56.90;;;;;;5113655;28;20053;-71
2022/05/17 12:47:51;;;;;;;6.85;4.05;;;23.60;57.30;;;;;;5113541;28;20513;-71
2022/05/17 12:50:20;;;;;;;7.38;3.92;;;23.70;54.90;;;;;;5113453;28;20020;-71
2022/05/17 12:52:51;;;;;;;12.48;4.45;;;23.80;54.10;;;;;;5113421;28;20028;-71
2022/05/17 12:55:25;;;;;;;13.07;4.55;;;23.80;55.40;;;;;;5113557;28;20024;-70
2022/05/17 12:57:52;;;;;;;13.98;5.20;;;24.00;55.20;;;;;;5113510;28;20020;-71
2022/05/17 13:00:39;;;;;;;10.82;4.18;;;24.00;54.80;;;;;;5113300;28;20054;-70
2022/05/17 13:03:17;;;;;;;8.52;3.92;;;24.20;54.80;;;;;;5113490;28;20084;-70
2022/05/17 13:05:48;;;;;;;8.90;4.28;;;24.30;52.00;;;;;;5113296;28;20016;-70
2022/05/17 13:08:13;;;;;;;12.88;4.43;;;24.20;52.50;;;;;;5113298;28;20475;-70
2022/05/17 13:10:43;;;;;;;10.27;4.82;;;24.20;53.80;;;;;;5113217;28;20039;-71
2022/05/17 13:13:14;;;;;;;10.13;4.72;;;24.30;53.80;;;;;;5113253;28;20040;-70
2022/05/17 13:15:44;;;;;;;10.55;4.18;;;24.30;51.30;;;;;;5113289;28;20059;-70